TAF Text Data
IDs:
Format:
Raw Decoded Include METAR

Data at: 1743 UTC 18 Jan 2019

Region: TOP
KATL 181737Z 1818/1924 20006KT 5SM BR SCT006 BKN012
  FM182000 19005KT P6SM SCT012 BKN025
  FM190000 15004KT P6SM OVC012
  FM190300 13004KT 5SM BR OVC008
  FM191000 15007KT 2SM BR VCSH OVC004
  PROB30 1910/1915 3/4SM -SHRA BR OVC003
  FM191500 17012G20KT 4SM -SHRA BR OVC010
  FM192000 19014G24KT 3SM -SHRA BR OVC020


KBOS 181741Z 1818/1924 16006KT P6SM SCT030 BKN050
  FM182200 21006KT P6SM FEW030 BKN050
  FM190100 26007KT P6SM SCT050 BKN250
  FM190500 31009KT P6SM FEW250
  FM191300 35009KT P6SM SCT200
  FM191900 05007KT P6SM BKN080
  FM192200 07010KT P6SM VCSH OVC040


KBWI 181738Z 1818/1924 28005KT P6SM OVC010
  FM182300 29005KT P6SM BKN035
  FM191200 05004KT P6SM OVC040
  FM191500 08006KT P6SM OVC035
  FM191800 09007KT 1SM -SN OVC010
  FM192100 10009KT 2SM -RASNPL OVC010


KCLE 181720Z 1818/1924 28007KT 5SM BR OVC010
  FM182100 33004KT P6SM OVC018
  FM190700 06006KT 3SM -SN OVC015
  FM191200 06011KT 1 1/2SM -SN OVC008
  FM191500 03015G25KT 1SM -SN OVC008


KCLT 181739Z 1818/1924 20002KT 6SM BR OVC006
  FM181900 VRB02KT P6SM SCT027
  TEMPO 1819/1820 BKN008
  FM190400 00000KT 6SM BR BKN029
  FM190900 08004KT 4SM BR VCSH OVC006
  FM191700 15005KT 5SM -SHRA BR OVC005


KCVG 181738Z 1818/1924 33005KT P6SM OVC013
  FM190000 09005KT P6SM OVC018
  FM190900 08010KT 4SM BR VCSH OVC011
  FM191200 08012KT 4SM -RA OVC008
  FM191800 06012G28KT 3SM -RA OVC012
  TEMPO 1922/1923 1SM -SNRA OVC008
  FM192300 02015G33KT 2SM -SN OVC006


KDCA 181738Z 1818/1924 28004KT P6SM BKN010
  FM182100 29004KT P6SM BKN035
  FM190700 VRB03KT P6SM OVC050
  FM191500 08006KT P6SM OVC025
  FM191800 09006KT 1SM -RASNPL OVC010
  FM192100 11008KT 2SM -FZRA OVC010


KDEN 181736Z 1818/1924 01020G32KT P6SM BKN050 OVC080
  TEMPO 1818/1821 3SM -SHSN BKN030
  FM182300 01015G25KT P6SM SCT050 BKN120
  FM190200 35011KT P6SM FEW050 SCT120
  FM190500 22008KT P6SM FEW070 FEW120
  FM192000 26010KT P6SM SCT120


KDFW 181741Z 1818/1924 17016KT P6SM SCT010 BKN250
  FM190400 27015G25KT P6SM VCSH BKN050 BKN250
  FM190700 33025G35KT P6SM BKN025
  FM192100 34020G30KT P6SM SCT040


KDTW 181720Z 1818/1924 29011KT 6SM BR OVC020
  FM182000 33008KT P6SM SCT040 BKN200
  FM190000 03008KT P6SM SCT025 OVC100
  FM190400 05008KT 5SM -SN BKN022 OVC040
  FM190500 06013KT 2SM -SN OVC015
  FM190900 05014KT 1SM -SN BR OVC009
  FM191100 05014KT 3SM -SN BR OVC009
  FM191400 05015KT 3/4SM -SN OVC005
  FM191800 05015G24KT 6SM -SN BKN015 OVC030


KEWR 181728Z 1818/1924 VRB03KT P6SM SCT008 BKN035
  FM182000 21004KT P6SM SCT015 BKN035
  FM182300 28007KT P6SM FEW025 SCT250
  FM190500 33006KT P6SM BKN250
  FM191500 06006KT P6SM SCT040 BKN150
  FM191800 08008KT P6SM BKN040 BKN150
  FM192100 09010KT 3SM -SN SCT010 BKN020 OVC040
  TEMPO 1922/1924 1SM -SN BKN010 OVC020


KFLL 181720Z 1818/1924 11008KT P6SM FEW250
  FM190100 12003KT P6SM FEW250
  FM190600 17003KT P6SM FEW250
  FM191500 14012KT P6SM SCT250
  FM191800 14015KT P6SM SCT100 SCT250


KIAD 181738Z 1818/1924 29005KT P6SM OVC010
  FM182100 31004KT P6SM BKN015
  FM190000 VRB03KT P6SM OVC035
  FM191200 VRB03KT P6SM OVC015
  FM191800 10007KT 1SM -SNRAPL OVC010
  FM192100 11008KT 1SM -FZRA OVC010


KIAH 181738Z 1818/1924 17006KT 5SM BR SCT004 OVC008
  TEMPO 1818/1820 2SM BR OVC004
  FM182000 18012G22KT P6SM VCSH OVC015
  FM190700 23011G21KT P6SM VCTS BKN015CB OVC025
  FM191100 30013G23KT P6SM BKN025 OVC035
  FM191500 32019G29KT P6SM SCT030


KJFK 181728Z 1818/1924 16004KT P6SM SCT008 BKN035
  FM182000 21005KT P6SM SCT015 BKN035
  FM182300 28007KT P6SM FEW025 SCT250
  FM190500 34007KT P6SM BKN250
  FM191500 06008KT P6SM SCT040 BKN150
  FM191800 08010KT P6SM BKN040 BKN150
  FM192100 09012KT 3SM -SN SCT010 BKN020 OVC040
  TEMPO 1922/1924 1SM -SN BKN010 OVC020


KLAS 181731Z 1818/1924 05009KT P6SM SCT120 SCT250
  FM190300 VRB05KT P6SM FEW150 SCT250


KLAX 181617Z 1816/1918 04006KT 4SM BR SCT005 BKN018
  FM181700 VRB03KT 5SM HZ SCT005 SCT018
  FM181800 26010KT P6SM SCT040
  FM190400 VRB03KT P6SM SKC
  FM191700 25008KT P6SM SKC


KLGA 181728Z 1818/1924 05006KT P6SM SCT008 BKN035
  FM182000 21005KT P6SM SCT015 BKN025
  FM182300 28007KT P6SM FEW025 SCT250
  FM190500 34007KT P6SM BKN250
  FM191500 06008KT P6SM SCT040 BKN150
  FM191800 06010KT P6SM BKN040 BKN150
  FM192100 07012KT 3SM -SN SCT010 BKN020 OVC040
  TEMPO 1922/1924 1SM -SN BKN010 OVC020


KMCO 181730Z 1818/1924 VRB03KT P6SM FEW050 FEW250
  FM190000 13003KT P6SM SCT250
  FM191500 17011KT P6SM FEW040 BKN250


KMDW 181459Z 1815/1918 02009KT P6SM OVC020
  FM182000 05012KT P6SM OVC018
  FM182200 06012KT 2SM -SN OVC012
  FM190200 06012G18KT 1 1/2SM -SN OVC010
  TEMPO 1903/1906 1SM -SN BR OVC008
  FM190600 06015G24KT 3/4SM -SN BLSN BR OVC008
  FM191300 04015G26KT 1 1/2SM -SN BLSN OVC012


KMEM 181741Z 1818/1924 09006KT P6SM BKN005 BKN250
  FM181900 13007KT P6SM OVC015
  FM182200 16007KT P6SM SCT020 BKN040
  FM190100 16010KT P6SM BKN040
  FM190300 16013G20KT P6SM VCTS OVC015CB WS020/22050KT
  TEMPO 1906/1910 4SM -TSRA BR OVC008CB
  FM191000 VRB10G25KT 2SM TSRA BR OVC005CB
  FM191300 34013G20KT P6SM VCSH SCT010 BKN040
  FM191800 31015G23KT 6SM -RA BR OVC015


KMIA 181720Z 1818/1924 11006KT P6SM FEW250
  FM190100 12003KT P6SM SCT250
  FM191500 13010KT P6SM SCT250
  FM191800 13015KT P6SM SCT100 SCT250


KMSP 181720Z 1818/1924 02010KT P6SM OVC050
  FM181930 02011KT 2SM -SN BR BKN025 OVC035
  FM182300 02010KT 5SM -SN BR SCT025 OVC050
  FM190200 01009KT P6SM OVC050
  FM190900 36008KT P6SM SCT250
  FM192000 33007KT P6SM SKC


KORD 181459Z 1815/1918 02009KT P6SM OVC020
  FM182000 05012KT P6SM OVC018
  FM182200 06012KT 2SM -SN OVC012
  FM190100 06012G18KT 1SM -SN OVC010
  TEMPO 1902/1906 1/2SM SN FZFG OVC008
  FM190600 06014G24KT 3/4SM -SN BLSN BR OVC008
  FM191300 04015G26KT 1 1/2SM -SN BLSN OVC012


KPDX 181730Z 1818/1918 12009KT P6SM SCT035 BKN060 OVC100
  FM182100 12010KT P6SM -RA OVC050
  FM182300 12015KT 5SM -RA BR BKN022 OVC035
  FM190500 17018G28KT 5SM RA BKN015 OVC025
  FM191300 19014G22KT P6SM -RA SCT015 OVC035


KPHL 181739Z 1818/1924 VRB04KT 6SM BR OVC006
  TEMPO 1818/1820 3SM BR OVC005
  FM182000 28005KT P6SM OVC020
  TEMPO 1820/1822 OVC008
  FM182300 29005KT P6SM BKN040
  FM190600 33004KT P6SM BKN200
  FM191300 06005KT P6SM OVC200
  FM192000 08010KT 4SM -SN BR OVC015


KPHX 181720Z 1818/1924 15006KT P6SM FEW040 SCT100 BKN250
  FM181900 29007KT P6SM FEW050 BKN250
  FM190500 06005KT P6SM FEW250
  FM192000 30006KT P6SM SCT250


KPIT 181732Z 1818/1924 29006KT P6SM BKN008 OVC015
  FM182000 30004KT P6SM OVC015
  FM190200 34003KT P6SM BKN020
  FM191100 06005KT P6SM VCSH OVC015
  FM191500 08007KT 2SM -SN OVC008


KSAN 181721Z 1818/1924 VRB03KT 6SM BR VCSH FEW025 SCT030 BKN040
  FM182100 29008KT P6SM SCT030
  FM190100 VRB04KT P6SM SCT020
  FM191900 32007KT P6SM FEW250


KSEA 181724Z 1818/1924 18012KT P6SM BKN040 BKN100
  FM182000 16008KT P6SM SCT035 BKN080
  FM190000 10010KT P6SM -RA OVC050
  FM190900 18014G20KT P6SM -RA BKN025 OVC040
  FM191400 20012KT P6SM SCT025 OVC040


KSFO 181726Z 1818/1924 09005KT P6SM OVC060
  FM182200 15006KT P6SM BKN040
  FM190600 15004KT P6SM -SHRA BKN035 OVC050
  FM191100 12004KT P6SM VCSH BKN050
  FM191600 11003KT P6SM BKN050
  FM192000 07004KT P6SM BKN050


KSLC 181732Z 1818/1924 32006KT P6SM VCSH BKN035 BKN060
  FM182200 34006KT P6SM SCT030 SCT060
  FM190200 16007KT P6SM SCT050 SCT100
  FM191100 16007KT P6SM OVC060


KSTL 181732Z 1818/1924 11009KT 5SM BR OVC007
  FM190200 09012KT 5SM -RA OVC005
  FM190700 05015G21KT 2SM RA OVC005
  FM191200 02015G21KT 2SM RASN OVC004
  FM191400 01016G23KT 2SM -SN OVC005
  FM191700 36018G28KT 1 1/2SM -SN BLSN OVC009
  FM192300 35019G29KT 6SM BLSN VCSH OVC009


KTPA 181726Z 1818/1924 24005KT P6SM SCT250
  FM191600 17009KT P6SM FEW070 SCT250